PDT,Max TemperatureF,Mean TemperatureF,Min TemperatureF,Max Dew PointF,MeanDew PointF,Min DewpointF,Max Humidity, Mean Humidity, Min Humidity, Max Sea Level PressureIn, Mean Sea Level PressureIn, Min Sea Level PressureIn, Max VisibilityMiles, Mean VisibilityMiles, Min VisibilityMiles, Max Wind SpeedMPH, Mean Wind SpeedMPH, Max Gust SpeedMPH,PrecipitationIn, CloudCover, Events, WindDirDegrees
2010-10-1,88,72,57,56,53,50,81,56,29,29.98,29.91,29.82,10,10,10,10,6,,0.00,0,,223
2010-10-2,91,76,60,55,51,37,75,51,16,29.95,29.89,29.82,10,10,10,12,4,18,0.00,0,,193
2010-10-3,79,68,57,51,48,45,77,53,33,29.95,29.89,29.86,10,10,10,20,8,26,0.00,1,,207
2010-10-4,72,62,53,51,50,47,80,64,46,29.95,29.90,29.83,10,10,10,9,5,,0.00,1,,234
2010-10-5,78,65,53,51,45,35,74,50,26,29.93,29.91,29.88,10,10,10,12,4,21,0.00,0,,81
2010-10-6,79,66,53,50,46,41,77,52,27,30.06,29.99,29.92,10,10,10,13,5,22,0.00,1,,227
2010-10-7,75,65,54,49,47,44,72,56,37,30.17,30.13,30.06,10,10,10,14,7,21,0.00,0,,208
2010-10-8,80,62,46,47,44,41,83,56,28,30.22,30.18,30.14,10,10,10,9,2,,0.00,0,,163
2010-10-9,84,68,51,49,46,43,77,51,27,30.27,30.19,30.12,10,10,10,7,1,,0.00,0,,212
2010-10-10,90,72,55,56,52,48,77,52,30,30.12,30.03,29.93,10,10,10,7,1,,0.00,0,,197
2010-10-11,95,76,57,54,37,22,78,33,8,30.00,29.95,29.90,10,10,10,17,5,28,0.00,0,,354
2010-10-12,93,77,60,38,28,22,41,18,9,30.06,30.01,29.97,10,10,10,14,9,29,0.00,0,,350
2010-10-13,93,74,54,46,39,35,56,35,15,30.09,30.03,29.98,10,10,10,8,1,,0.00,0,,3
2010-10-14,93,75,57,50,46,43,60,38,19,30.09,30.03,29.97,10,10,10,8,1,,0.00,0,,244
2010-10-15,95,75,57,49,47,43,67,42,18,30.02,29.97,29.91,10,10,10,9,2,,0.00,0,,190
2010-10-16,86,72,59,45,40,21,60,38,10,30.01,29.96,29.94,10,10,10,13,6,18,0.00,0,,216
2010-10-17,64,60,55,57,50,40,93,74,41,30.07,30.03,29.95,10,10,7,16,6,23,0.13,6,Rain,224
2010-10-18,73,63,53,55,52,50,93,73,46,30.05,30.00,29.94,10,9,8,7,3,,0.00,1,,218
2010-10-19,82,66,50,52,50,48,93,66,33,30.00,29.92,29.84,10,10,7,7,2,,0.00,0,,220
2010-10-20,78,62,48,50,48,45,90,65,34,29.99,29.95,29.87,10,9,6,14,3,18,0.00,0,,217
2010-10-21,71,62,55,50,47,44,72,61,42,30.07,30.03,29.99,10,10,10,14,7,21,0.00,1,,224
2010-10-22,64,59,54,55,53,48,94,79,64,30.05,30.02,29.98,10,10,7,12,3,,0.08,7,Rain,207
2010-10-23,63,58,54,55,51,47,94,81,58,30.08,30.04,30.01,10,8,3,9,6,,0.14,7,Rain,170
2010-10-24,64,60,57,63,58,52,96,90,75,30.02,29.93,29.85,10,5,1,17,10,26,1.34,7,Rain,176
2010-10-25,69,60,52,52,45,41,87,62,37,30.14,30.08,30.04,10,8,2,14,5,,0.00,0,,290
2010-10-26,69,56,44,45,41,32,89,61,32,30.15,30.09,30.05,10,10,10,8,4,,0.00,0,,5
2010-10-27,64,52,41,51,38,32,81,54,34,30.13,30.09,30.06,10,10,8,9,4,,0.01,2,Rain,352
2010-10-28,64,56,48,47,44,38,80,63,49,30.07,30.03,29.99,10,10,10,8,3,,0.00,4,,347
2010-10-29,64,57,53,54,51,45,93,80,64,30.04,29.97,29.86,10,10,10,7,3,,0.05,6,Rain,338
2010-10-30,63,58,53,55,53,50,94,84,68,30.16,30.02,29.87,10,8,2,8,3,,0.12,6,Rain,189
2010-10-31,71,59,48,53,49,43,100,82,38,30.27,30.20,30.15,10,6,0,6,2,,0.01,1,Fog,205